Knoxville, Tennessee
Current Conditions -  °F | °C
As of 11:53 AM on Saturday 20 Dec 2014 (Local Time) from KTYS Reporting Station
Overcast Overcast  
Wind Chill: 41°   Ceiling: 2200
Heat Index: 41°   Visibility: 10mi
Dew Point: 31°   Wind: 3mph
Humidity: 67%   Direction: 360°N
Pressure: 30.23"   Gusts: NA
Location:  35.96°N, 83.92°W
Report Text: KTYS 201653Z 36003KT 10SM OVC022 05/M01 A3023 RMK AO2 SLP239 T00501006
Loading
Personal Weather Stations






























Interactive Weather Map New forecast layout! Learn more

10-Day Weather Forecast

Advertisements
Track Severe Weather on mobile